createdAt,value
2019-05-21T00:00:57.818Z,20.77
2019-05-21T00:03:26.320Z,21.45
2019-05-21T00:05:54.846Z,21.57
2019-05-21T00:08:23.314Z,21.12
2019-05-21T00:10:51.819Z,21.95
2019-05-21T00:13:20.351Z,21.60
2019-05-21T00:15:48.809Z,22.40
2019-05-21T00:18:17.314Z,21.85
2019-05-21T00:20:45.780Z,24.02
2019-05-21T00:23:14.240Z,23.55
2019-05-21T00:25:42.744Z,21.82
2019-05-21T00:28:32.081Z,20.52
2019-05-21T00:31:36.820Z,20.30
2019-05-21T00:34:43.915Z,19.75
2019-05-21T00:37:48.593Z,12.83
2019-05-21T00:40:53.779Z,18.48
2019-05-21T00:43:30.962Z,18.98
2019-05-21T00:45:59.432Z,18.87
2019-05-21T00:48:27.886Z,20.32
2019-05-21T00:50:56.388Z,21.17
2019-05-21T00:53:24.923Z,21.27
2019-05-21T00:55:53.389Z,21.57
2019-05-21T00:58:21.877Z,21.82
2019-05-21T01:00:50.350Z,21.10
2019-05-21T01:03:18.809Z,20.75
2019-05-21T01:05:47.323Z,20.65
2019-05-21T01:08:15.791Z,21.07
2019-05-21T01:10:44.248Z,22.07
2019-05-21T01:13:12.773Z,20.77
2019-05-21T01:15:41.233Z,22.35
2019-05-21T01:18:09.762Z,23.92
2019-05-21T01:20:38.264Z,23.47
2019-05-21T01:23:06.734Z,26.35
2019-05-21T01:25:35.187Z,23.52
2019-05-21T01:28:03.685Z,24.12
2019-05-21T01:30:32.151Z,25.65
2019-05-21T01:33:00.622Z,26.37
2019-05-21T01:35:29.129Z,26.23
2019-05-21T01:37:57.587Z,28.47
2019-05-21T01:40:26.050Z,27.30
2019-05-21T01:42:54.552Z,27.27
2019-05-21T01:45:23.013Z,26.20
2019-05-21T01:47:51.472Z,24.37
2019-05-21T01:50:20.008Z,26.95
2019-05-21T01:52:48.532Z,25.30
2019-05-21T01:55:17.005Z,24.15
2019-05-21T01:57:45.491Z,23.30
2019-05-21T02:00:14.201Z,23.47
2019-05-21T02:02:42.740Z,24.23
2019-05-21T02:05:11.390Z,24.00
2019-05-21T02:07:39.841Z,23.60
2019-05-21T02:10:08.750Z,23.83
2019-05-21T02:12:37.252Z,22.75
2019-05-21T02:15:07.108Z,22.75
2019-05-21T02:17:35.572Z,24.20
2019-05-21T02:20:05.716Z,23.02
2019-05-21T02:22:34.186Z,22.95
2019-05-21T02:25:02.790Z,22.73
2019-05-21T02:27:31.291Z,22.22
2019-05-21T02:29:59.761Z,24.40
2019-05-21T02:32:28.226Z,23.30
2019-05-21T02:34:56.724Z,24.25
2019-05-21T02:37:25.183Z,23.90
2019-05-21T02:39:53.643Z,23.10
2019-05-21T02:42:22.151Z,22.95
2019-05-21T02:44:53.889Z,25.37
2019-05-21T02:47:21.034Z,23.80
2019-05-21T02:49:49.613Z,23.85
2019-05-21T02:52:18.079Z,22.15
2019-05-21T02:54:46.576Z,23.22
2019-05-21T02:57:15.143Z,22.80
2019-05-21T02:59:45.253Z,23.67
2019-05-21T03:02:33.429Z,24.90
2019-05-21T03:05:01.894Z,26.87
2019-05-21T03:07:30.526Z,25.80
2019-05-21T03:09:59.014Z,25.00
2019-05-21T03:12:27.540Z,24.82
2019-05-21T03:14:56.015Z,25.27
2019-05-21T03:17:24.605Z,26.07
2019-05-21T03:19:53.128Z,25.43
2019-05-21T03:22:21.584Z,26.12
2019-05-21T03:24:50.151Z,24.80
2019-05-21T03:27:18.617Z,26.68
2019-05-21T03:29:47.349Z,27.15
2019-05-21T03:32:15.850Z,26.00
2019-05-21T03:34:44.313Z,25.92
2019-05-21T03:37:12.860Z,25.52
2019-05-21T03:39:41.425Z,25.10
2019-05-21T03:42:09.905Z,24.47
2019-05-21T03:44:56.319Z,24.30
2019-05-21T03:47:09.474Z,23.38
2019-05-21T03:49:37.960Z,24.55
2019-05-21T03:52:06.481Z,24.35
2019-05-21T03:54:35.216Z,24.32
2019-05-21T03:57:03.933Z,24.10
2019-05-21T03:59:32.461Z,24.18
2019-05-21T04:02:01.024Z,24.47
2019-05-21T04:04:29.490Z,24.20
2019-05-21T04:06:57.951Z,25.72
2019-05-21T04:09:26.452Z,25.30
2019-05-21T04:11:54.907Z,25.05
2019-05-21T04:14:31.296Z,23.65
2019-05-21T04:17:02.323Z,23.90
2019-05-21T04:19:35.489Z,23.15
2019-05-21T04:22:05.564Z,23.60
2019-05-21T04:24:34.018Z,22.60
2019-05-21T04:27:02.518Z,23.52
2019-05-21T04:29:30.996Z,21.52
2019-05-21T04:31:59.462Z,21.42
2019-05-21T04:34:28.013Z,21.90
2019-05-21T04:37:09.863Z,21.25
2019-05-21T04:39:26.781Z,22.27
2019-05-21T04:41:55.364Z,20.68
2019-05-21T04:44:23.827Z,21.42
2019-05-21T04:46:52.280Z,20.88
2019-05-21T04:49:20.793Z,21.05
2019-05-21T04:51:49.479Z,20.08
2019-05-21T04:54:17.959Z,20.15
2019-05-21T04:56:46.591Z,19.17
2019-05-21T04:59:15.046Z,20.50
2019-05-21T05:01:43.505Z,20.50
2019-05-21T05:04:12.012Z,19.75
2019-05-21T05:06:40.472Z,20.12
2019-05-21T05:09:08.945Z,20.10
2019-05-21T05:11:37.702Z,19.37
2019-05-21T05:14:06.232Z,19.15
2019-05-21T05:16:34.700Z,21.10
2019-05-21T05:19:03.207Z,18.40
2019-05-21T05:21:31.664Z,19.67
2019-05-21T05:24:00.133Z,19.80
2019-05-21T05:26:28.636Z,19.45
2019-05-21T05:28:57.117Z,19.07
2019-05-21T05:31:25.587Z,18.35
2019-05-21T05:33:54.167Z,19.37
2019-05-21T05:36:22.621Z,18.37
2019-05-21T05:38:51.155Z,18.92
2019-05-21T05:41:19.666Z,17.07
2019-05-21T05:43:48.139Z,15.93
2019-05-21T05:46:16.608Z,16.37
2019-05-21T05:48:46.825Z,17.45
2019-05-21T05:51:15.319Z,16.62
2019-05-21T05:53:59.184Z,15.78
2019-05-21T05:56:28.993Z,15.53
2019-05-21T05:58:57.598Z,14.18
2019-05-21T06:01:27.237Z,14.90
2019-05-21T06:03:55.764Z,14.40
2019-05-21T06:06:24.231Z,14.18
2019-05-21T06:08:52.735Z,16.90
2019-05-21T06:11:21.200Z,16.32
2019-05-21T06:13:49.650Z,16.62
2019-05-21T06:16:18.159Z,17.87
2019-05-21T06:18:46.767Z,17.70
2019-05-21T06:21:15.225Z,16.55
2019-05-21T06:23:44.039Z,15.85
2019-05-21T06:26:12.500Z,15.13
2019-05-21T06:28:41.033Z,13.50
2019-05-21T06:31:09.612Z,14.43
2019-05-21T06:33:38.088Z,13.43
2019-05-21T06:36:06.698Z,12.85
2019-05-21T06:38:35.189Z,13.22
2019-05-21T06:41:03.818Z,14.25
2019-05-21T06:43:32.333Z,14.78
2019-05-21T06:46:00.837Z,15.35
2019-05-21T06:48:29.309Z,15.88
2019-05-21T06:50:57.794Z,16.57
2019-05-21T06:53:26.383Z,17.32
2019-05-21T06:55:54.860Z,14.90
2019-05-21T06:58:23.471Z,16.93
2019-05-21T07:00:51.985Z,16.73
2019-05-21T07:03:20.520Z,14.53
2019-05-21T07:05:58.488Z,15.83
2019-05-21T07:08:33.674Z,15.03
2019-05-21T07:10:49.633Z,14.45
2019-05-21T07:13:18.150Z,14.28
2019-05-21T07:15:46.649Z,14.85
2019-05-21T07:18:15.122Z,15.03
2019-05-21T07:20:43.589Z,14.18
2019-05-21T07:23:12.180Z,15.45
2019-05-21T07:25:40.654Z,15.65
2019-05-21T07:28:09.110Z,14.83
2019-05-21T07:30:37.704Z,13.60
2019-05-21T07:33:06.897Z,12.90
2019-05-21T07:35:35.703Z,13.20
2019-05-21T07:38:04.285Z,12.40
2019-05-21T07:40:32.740Z,12.85
2019-05-21T07:43:01.210Z,13.95
2019-05-21T07:45:29.785Z,15.03
2019-05-21T07:47:58.251Z,14.25
2019-05-21T07:50:26.846Z,15.32
2019-05-21T07:52:55.365Z,15.38
2019-05-21T07:55:23.892Z,19.05
2019-05-21T07:57:52.352Z,19.32
2019-05-21T08:00:21.294Z,20.62
2019-05-21T08:02:49.756Z,19.82
2019-05-21T08:05:18.225Z,18.87
2019-05-21T08:07:46.785Z,18.85
2019-05-21T08:10:16.090Z,17.92
2019-05-21T08:12:44.562Z,15.40
2019-05-21T08:15:13.487Z,11.90
2019-05-21T08:17:42.012Z,15.20
2019-05-21T08:20:11.630Z,14.60
2019-05-21T08:22:40.185Z,14.73
2019-05-21T08:25:09.063Z,14.15
2019-05-21T08:27:37.604Z,16.25
2019-05-21T08:30:06.902Z,15.68
2019-05-21T08:32:35.356Z,16.32
2019-05-21T08:35:05.754Z,14.93
2019-05-21T08:37:34.327Z,14.58
2019-05-21T08:40:03.226Z,14.85
2019-05-21T08:42:31.692Z,14.40
2019-05-21T08:45:00.243Z,14.45
2019-05-21T08:47:28.720Z,13.72
2019-05-21T08:49:57.186Z,11.50
2019-05-21T08:52:25.677Z,9.78
2019-05-21T08:54:56.458Z,10.98
2019-05-21T08:57:24.333Z,11.15
2019-05-21T08:59:52.825Z,10.90
2019-05-21T09:02:21.369Z,10.93
2019-05-21T09:04:49.931Z,11.88
2019-05-21T09:07:18.769Z,10.38
2019-05-21T09:09:50.642Z,10.43
2019-05-21T09:12:17.557Z,11.68
2019-05-21T09:14:46.083Z,13.05
2019-05-21T09:17:14.684Z,13.20
2019-05-21T09:19:43.158Z,12.30
2019-05-21T09:22:11.737Z,11.12
2019-05-21T09:24:40.190Z,12.35
2019-05-21T09:27:08.668Z,12.43
2019-05-21T09:29:37.244Z,11.22
2019-05-21T09:32:05.708Z,11.10
2019-05-21T09:34:48.109Z,11.85
2019-05-21T09:37:18.523Z,13.45
2019-05-21T09:39:34.791Z,12.93
2019-05-21T09:42:03.422Z,13.30
2019-05-21T09:44:31.983Z,13.48
2019-05-21T09:47:00.463Z,13.90
2019-05-21T09:49:29.052Z,11.85
2019-05-21T09:51:57.551Z,13.00
2019-05-21T09:54:26.090Z,12.95
2019-05-21T09:56:54.557Z,12.05
2019-05-21T09:59:24.692Z,10.75
2019-05-21T10:01:57.583Z,11.33
2019-05-21T10:04:26.140Z,11.57
2019-05-21T10:06:54.733Z,11.20
2019-05-21T10:09:23.260Z,10.65
2019-05-21T10:11:51.724Z,12.05
2019-05-21T10:14:20.236Z,12.37
2019-05-21T10:16:48.774Z,11.85
2019-05-21T10:19:17.244Z,11.88
2019-05-21T10:21:45.767Z,12.15
2019-05-21T10:24:14.227Z,13.45
2019-05-21T10:26:42.851Z,12.07
2019-05-21T10:29:11.349Z,11.38
2019-05-21T10:31:39.970Z,11.25
2019-05-21T10:34:08.490Z,11.48
2019-05-21T10:36:36.991Z,11.05
2019-05-21T10:39:07.191Z,9.10
2019-05-21T10:41:35.648Z,8.73
2019-05-21T10:44:04.786Z,8.10
2019-05-21T10:46:33.323Z,8.83
2019-05-21T10:49:01.863Z,8.53
2019-05-21T10:51:30.383Z,9.03
2019-05-21T10:53:58.963Z,9.18
2019-05-21T10:56:27.477Z,8.90
2019-05-21T10:58:55.973Z,8.18
2019-05-21T11:01:29.375Z,11.43
2019-05-21T11:04:08.744Z,10.50
2019-05-21T11:06:37.555Z,10.05
2019-05-21T11:09:09.595Z,9.70
2019-05-21T11:11:38.243Z,9.10
2019-05-21T11:14:06.882Z,9.03
2019-05-21T11:16:35.567Z,8.65
2019-05-21T11:19:04.171Z,9.90
2019-05-21T11:21:32.643Z,9.43
2019-05-21T11:24:01.273Z,8.23
2019-05-21T11:26:29.925Z,7.55
2019-05-21T11:28:58.389Z,8.50
2019-05-21T11:31:26.854Z,7.80
2019-05-21T11:33:55.525Z,7.37
2019-05-21T11:36:24.058Z,8.50
2019-05-21T11:38:52.521Z,8.53
2019-05-21T11:41:21.024Z,8.60
2019-05-21T11:43:49.645Z,7.65
2019-05-21T11:46:18.087Z,8.00
2019-05-21T11:48:46.607Z,9.00
2019-05-21T11:51:15.115Z,8.85
2019-05-21T11:53:43.603Z,6.75
2019-05-21T11:56:13.685Z,7.17
2019-05-21T11:58:42.222Z,7.33
2019-05-21T12:01:10.744Z,6.80
2019-05-21T12:03:39.222Z,6.90
2019-05-21T12:06:07.691Z,6.90
2019-05-21T12:08:36.250Z,7.22
2019-05-21T12:11:05.032Z,7.30
2019-05-21T12:13:33.547Z,7.15
2019-05-21T12:16:02.172Z,7.37
2019-05-21T12:18:30.669Z,6.58
2019-05-21T12:20:59.127Z,7.47
2019-05-21T12:23:27.634Z,7.42
2019-05-21T12:25:56.174Z,6.87
2019-05-21T12:28:24.727Z,6.90
2019-05-21T12:30:53.249Z,6.55
2019-05-21T12:33:21.740Z,6.95
2019-05-21T12:35:50.271Z,6.15
2019-05-21T12:38:18.730Z,5.80
2019-05-21T12:40:48.010Z,6.45
2019-05-21T12:43:16.471Z,6.72
2019-05-21T12:45:44.994Z,5.97
2019-05-21T12:48:13.498Z,6.50
2019-05-21T12:50:41.971Z,7.08
2019-05-21T12:53:10.504Z,6.28
2019-05-21T12:55:39.067Z,5.62
2019-05-21T12:58:07.528Z,5.78
2019-05-21T13:00:36.629Z,5.92
2019-05-21T13:03:05.259Z,6.22
2019-05-21T13:05:33.875Z,5.67
2019-05-21T13:08:02.422Z,5.47
2019-05-21T13:10:31.024Z,5.50
2019-05-21T13:12:59.523Z,5.33
2019-05-21T13:15:27.985Z,5.40
2019-05-21T13:17:56.477Z,5.25
2019-05-21T13:20:25.106Z,5.22
2019-05-21T13:22:53.651Z,4.87
2019-05-21T13:25:22.282Z,4.95
2019-05-21T13:27:50.744Z,5.70
2019-05-21T13:30:19.613Z,5.50
2019-05-21T13:32:48.175Z,5.20
2019-05-21T13:35:16.702Z,5.03
2019-05-21T13:37:45.153Z,4.62
2019-05-21T13:40:14.189Z,4.87
2019-05-21T13:42:42.648Z,5.33
2019-05-21T13:45:11.508Z,5.55
2019-05-21T13:47:40.074Z,5.28
2019-05-21T13:50:08.938Z,5.35
2019-05-21T13:52:37.393Z,4.97
2019-05-21T13:55:09.202Z,4.62
2019-05-21T13:57:37.733Z,4.80
2019-05-21T14:00:10.070Z,5.05
2019-05-21T14:02:39.103Z,4.53
2019-05-21T14:05:07.907Z,4.42
2019-05-21T14:07:36.484Z,4.70
2019-05-21T14:10:19.170Z,4.20
2019-05-21T14:12:37.159Z,5.20
2019-05-21T14:15:06.646Z,4.58
2019-05-21T14:17:35.155Z,4.47
2019-05-21T14:20:08.047Z,4.83
2019-05-21T14:22:36.781Z,5.30
2019-05-21T14:25:08.605Z,4.20
2019-05-21T14:27:44.241Z,4.00
2019-05-21T14:30:09.363Z,4.55
2019-05-21T14:32:38.105Z,3.67
2019-05-21T14:35:07.099Z,4.83
2019-05-21T14:37:35.694Z,4.75
2019-05-21T14:40:08.294Z,4.70
2019-05-21T14:42:36.752Z,4.58
2019-05-21T14:45:08.525Z,4.47
2019-05-21T14:47:37.092Z,4.30
2019-05-21T14:50:08.236Z,4.55
2019-05-21T14:52:36.768Z,4.37
2019-05-21T14:55:07.163Z,4.30
2019-05-21T14:57:35.611Z,4.55
2019-05-21T15:00:19.294Z,4.30
2019-05-21T15:02:48.470Z,4.53
2019-05-21T15:05:16.968Z,4.22
2019-05-21T15:07:49.498Z,4.37
2019-05-21T15:10:16.151Z,4.67
2019-05-21T15:12:44.662Z,4.75
2019-05-21T15:15:14.061Z,4.90
2019-05-21T15:17:42.917Z,4.97
2019-05-21T15:20:17.605Z,4.40
2019-05-21T15:22:46.207Z,4.75
2019-05-21T15:25:14.697Z,4.62
2019-05-21T15:27:43.147Z,4.50
2019-05-21T15:30:12.200Z,6.15
2019-05-21T15:32:40.647Z,4.95
2019-05-21T15:35:09.254Z,5.25
2019-05-21T15:37:37.749Z,5.30
2019-05-21T15:40:07.546Z,6.00
2019-05-21T15:42:36.009Z,6.25
2019-05-21T15:45:05.651Z,5.55
2019-05-21T15:47:34.183Z,5.55
2019-05-21T15:50:02.642Z,5.28
2019-05-21T15:52:31.135Z,5.72
2019-05-21T15:54:59.653Z,5.30
2019-05-21T15:57:28.099Z,5.83
2019-05-21T15:59:56.621Z,5.28
2019-05-21T16:02:25.085Z,5.83
2019-05-21T16:04:53.564Z,5.12
2019-05-21T16:07:22.055Z,5.00
2019-05-21T16:09:50.516Z,5.05
2019-05-21T16:12:19.043Z,5.17
2019-05-21T16:14:47.518Z,5.20
2019-05-21T16:17:15.976Z,5.70
2019-05-21T16:19:44.430Z,5.10
2019-05-21T16:22:12.925Z,5.03
2019-05-21T16:24:41.372Z,5.60
2019-05-21T16:27:09.820Z,5.00
2019-05-21T16:29:38.317Z,4.85
2019-05-21T16:32:06.937Z,4.87
2019-05-21T16:34:35.389Z,4.85
2019-05-21T16:37:03.902Z,4.28
2019-05-21T16:39:33.067Z,4.95
2019-05-21T16:42:01.800Z,5.22
2019-05-21T16:44:30.282Z,4.85
2019-05-21T16:46:58.761Z,5.45
2019-05-21T16:49:27.387Z,6.05
2019-05-21T16:51:55.875Z,6.22
2019-05-21T16:54:24.331Z,6.28
2019-05-21T16:56:52.854Z,5.97
2019-05-21T16:59:21.414Z,5.95
2019-05-21T17:01:49.874Z,5.78
2019-05-21T17:04:18.326Z,6.00
2019-05-21T17:06:46.909Z,5.85
2019-05-21T17:09:15.431Z,6.00
2019-05-21T17:11:57.639Z,5.67
2019-05-21T17:14:14.171Z,5.92
2019-05-21T17:16:42.628Z,5.60
2019-05-21T17:19:11.091Z,5.53
2019-05-21T17:21:39.570Z,5.67
2019-05-21T17:24:08.094Z,5.17
2019-05-21T17:26:36.614Z,6.12
2019-05-21T17:29:05.330Z,6.22
2019-05-21T17:31:33.801Z,6.65
2019-05-21T17:34:02.337Z,6.22
2019-05-21T17:36:30.903Z,6.40
2019-05-21T17:38:59.523Z,6.70
2019-05-21T17:41:27.987Z,6.55
2019-05-21T17:43:56.565Z,7.20
2019-05-21T17:46:25.192Z,7.00
2019-05-21T17:48:53.708Z,7.08
2019-05-21T17:51:22.192Z,6.78
2019-05-21T17:53:50.657Z,7.42
2019-05-21T17:56:19.110Z,7.75
2019-05-21T17:58:47.681Z,8.48
2019-05-21T18:01:17.278Z,8.20
2019-05-21T18:03:46.247Z,8.98
2019-05-21T18:06:16.255Z,11.03
2019-05-21T18:08:44.900Z,10.28
2019-05-21T18:11:15.275Z,8.63
2019-05-21T18:13:47.503Z,9.45
2019-05-21T18:16:15.116Z,8.58
2019-05-21T18:18:44.812Z,8.55
2019-05-21T18:21:13.489Z,8.83
2019-05-21T18:23:42.077Z,8.88
2019-05-21T18:26:10.811Z,9.18
2019-05-21T18:28:39.375Z,9.48
2019-05-21T18:31:07.837Z,10.18
2019-05-21T18:33:36.279Z,9.53
2019-05-21T18:36:04.795Z,9.28
2019-05-21T18:38:33.709Z,10.40
2019-05-21T18:41:02.249Z,10.98
2019-05-21T18:43:30.755Z,10.48
2019-05-21T18:45:59.362Z,10.23
2019-05-21T18:48:27.826Z,10.23
2019-05-21T18:50:56.396Z,10.28
2019-05-21T18:53:24.857Z,10.08
2019-05-21T18:55:53.315Z,10.63
2019-05-21T18:58:21.803Z,9.63
2019-05-21T19:00:50.331Z,9.73
2019-05-21T19:03:25.113Z,10.20
2019-05-21T19:05:49.051Z,10.10
2019-05-21T19:08:17.518Z,9.53
2019-05-21T19:10:45.980Z,11.53
2019-05-21T19:13:33.896Z,10.82
2019-05-21T19:16:02.441Z,9.38
2019-05-21T19:18:31.048Z,10.58
2019-05-21T19:20:59.561Z,10.15
2019-05-21T19:23:28.293Z,8.95
2019-05-21T19:25:56.750Z,13.28
2019-05-21T19:28:25.322Z,13.13
2019-05-21T19:31:13.203Z,10.78
2019-05-21T19:33:41.692Z,10.48
2019-05-21T19:36:10.162Z,11.70
2019-05-21T19:38:38.621Z,11.93
2019-05-21T19:41:08.306Z,10.85
2019-05-21T19:43:56.194Z,10.93
2019-05-21T19:46:24.693Z,10.55
2019-05-21T19:48:53.163Z,10.58
2019-05-21T19:51:21.627Z,10.70
2019-05-21T19:53:50.148Z,10.53
2019-05-21T19:56:18.689Z,12.18
2019-05-21T19:58:47.215Z,18.55
2019-05-21T20:01:15.885Z,24.43
2019-05-21T20:03:44.430Z,15.55
2019-05-21T20:06:15.338Z,13.03
2019-05-21T20:08:44.512Z,11.50
2019-05-21T20:11:14.489Z,10.75
2019-05-21T20:13:43.118Z,10.70
2019-05-21T20:16:11.642Z,10.25
2019-05-21T20:18:40.835Z,10.43
2019-05-21T20:21:09.475Z,9.80
2019-05-21T20:23:38.427Z,11.35
2019-05-21T20:26:10.560Z,11.08
2019-05-21T20:28:39.461Z,11.75
2019-05-21T20:31:07.954Z,11.75
2019-05-21T20:33:38.087Z,11.68
2019-05-21T20:36:08.157Z,12.18
2019-05-21T20:38:37.785Z,12.07
2019-05-21T20:41:06.489Z,11.55
2019-05-21T20:43:35.213Z,11.78
2019-05-21T20:46:04.254Z,11.30
2019-05-21T20:48:35.496Z,11.35
2019-05-21T20:51:04.254Z,11.73
2019-05-21T20:53:33.725Z,11.73
2019-05-21T20:56:02.323Z,10.30
2019-05-21T20:58:31.468Z,11.43
2019-05-21T21:01:01.123Z,10.98
2019-05-21T21:03:30.495Z,11.60
2019-05-21T21:05:59.022Z,10.93
2019-05-21T21:08:28.197Z,10.53
2019-05-21T21:10:56.813Z,10.38
2019-05-21T21:13:25.913Z,11.28
2019-05-21T21:15:54.972Z,11.12
2019-05-21T21:18:24.167Z,11.12
2019-05-21T21:20:52.880Z,12.47
2019-05-21T21:23:22.747Z,12.10
2019-05-21T21:25:51.266Z,11.60
2019-05-21T21:28:19.736Z,12.18
2019-05-21T21:30:48.836Z,11.78
2019-05-21T21:33:17.470Z,11.78
2019-05-21T21:35:46.210Z,12.70
2019-05-21T21:38:15.040Z,12.53
2019-05-21T21:40:43.673Z,13.53
2019-05-21T21:43:13.006Z,12.85
2019-05-21T21:45:42.421Z,12.80
2019-05-21T21:48:11.527Z,13.45
2019-05-21T21:50:41.905Z,14.03
2019-05-21T21:53:10.845Z,13.70
2019-05-21T21:55:39.310Z,13.15
2019-05-21T21:58:08.037Z,13.25
2019-05-21T22:01:03.808Z,13.85
2019-05-21T22:03:34.751Z,13.65
2019-05-21T22:06:06.656Z,14.25
2019-05-21T22:08:35.325Z,13.28
2019-05-21T22:11:04.988Z,13.58
2019-05-21T22:13:33.889Z,12.98
2019-05-21T22:16:02.686Z,13.32
2019-05-21T22:18:31.812Z,13.30
2019-05-21T22:21:01.955Z,13.20
2019-05-21T22:23:31.001Z,13.50
2019-05-21T22:25:59.593Z,13.62
2019-05-21T22:28:28.396Z,13.75
2019-05-21T22:30:57.144Z,13.78
2019-05-21T22:33:25.948Z,13.88
2019-05-21T22:35:54.484Z,13.88
2019-05-21T22:38:23.527Z,13.98
2019-05-21T22:40:52.153Z,13.75
2019-05-21T22:43:20.612Z,13.30
2019-05-21T22:45:49.192Z,13.05
2019-05-21T22:48:17.720Z,13.88
2019-05-21T22:50:46.191Z,13.93
2019-05-21T22:53:14.845Z,13.88
2019-05-21T22:55:43.306Z,13.00
2019-05-21T22:58:11.860Z,13.43
2019-05-21T23:00:41.909Z,12.93
2019-05-21T23:03:10.543Z,13.38
2019-05-21T23:05:39.269Z,13.65
2019-05-21T23:08:08.095Z,12.90
2019-05-21T23:10:37.174Z,14.05
2019-05-21T23:13:05.768Z,15.48
2019-05-21T23:15:34.604Z,16.07
2019-05-21T23:18:03.515Z,16.02
2019-05-21T23:20:33.999Z,16.48
2019-05-21T23:23:03.722Z,17.65
2019-05-21T23:25:32.515Z,16.35
2019-05-21T23:28:01.146Z,16.20
2019-05-21T23:30:29.950Z,17.20
2019-05-21T23:32:58.956Z,16.10
2019-05-21T23:35:28.524Z,17.70
2019-05-21T23:37:57.281Z,17.57
2019-05-21T23:40:26.117Z,17.12
2019-05-21T23:42:55.025Z,16.42
2019-05-21T23:45:23.579Z,17.27
2019-05-21T23:47:52.848Z,16.87
2019-05-21T23:50:22.114Z,16.27
2019-05-21T23:52:52.682Z,17.12
2019-05-21T23:55:21.209Z,17.92
2019-05-21T23:57:49.749Z,17.37
